createdAt,value
2019-05-29T00:00:05.729Z,5.62
2019-05-29T00:02:34.465Z,2.52
2019-05-29T00:05:03.543Z,4.70
2019-05-29T00:07:32.102Z,4.42
2019-05-29T00:10:00.734Z,2.25
2019-05-29T00:12:29.262Z,3.17
2019-05-29T00:14:57.823Z,2.00
2019-05-29T00:17:26.314Z,2.62
2019-05-29T00:19:55.102Z,1.92
2019-05-29T00:22:23.730Z,2.12
2019-05-29T00:24:52.217Z,2.52
2019-05-29T00:27:20.751Z,4.65
2019-05-29T00:29:49.398Z,2.30
2019-05-29T00:32:18.015Z,2.17
2019-05-29T00:34:46.604Z,3.17
2019-05-29T00:37:15.102Z,2.55
2019-05-29T00:39:43.770Z,1.17
2019-05-29T00:42:13.241Z,1.95
2019-05-29T00:44:42.696Z,3.15
2019-05-29T00:47:11.542Z,2.25
2019-05-29T00:49:40.213Z,2.27
2019-05-29T00:52:09.841Z,1.52
2019-05-29T00:54:38.624Z,1.82
2019-05-29T00:57:07.360Z,6.30
2019-05-29T00:59:36.940Z,3.50
2019-05-29T01:02:05.692Z,2.70
2019-05-29T01:04:34.319Z,5.55
2019-05-29T01:07:02.968Z,1.98
2019-05-29T01:09:31.501Z,1.57
2019-05-29T01:12:00.069Z,2.30
2019-05-29T01:14:28.566Z,2.20
2019-05-29T01:16:57.257Z,3.15
2019-05-29T01:19:25.883Z,2.45
2019-05-29T01:21:55.613Z,2.33
2019-05-29T01:24:24.884Z,1.92
2019-05-29T01:26:53.618Z,4.55
2019-05-29T01:29:23.290Z,7.33
2019-05-29T01:31:52.057Z,3.00
2019-05-29T01:34:21.905Z,2.15
2019-05-29T01:36:50.485Z,2.72
2019-05-29T01:39:19.369Z,2.37
2019-05-29T01:41:48.060Z,2.65
2019-05-29T01:44:17.390Z,1.98
2019-05-29T01:46:46.005Z,5.45
2019-05-29T01:49:16.017Z,4.42
2019-05-29T01:51:44.749Z,5.90
2019-05-29T01:54:13.436Z,1.72
2019-05-29T01:56:42.059Z,2.45
2019-05-29T01:59:10.692Z,2.77
2019-05-29T02:01:39.366Z,5.87
2019-05-29T02:04:08.001Z,4.67
2019-05-29T02:06:36.636Z,6.40
2019-05-29T02:09:06.905Z,10.50
2019-05-29T02:11:35.552Z,6.08
2019-05-29T02:14:04.175Z,7.40
2019-05-29T02:16:32.846Z,6.97
2019-05-29T02:19:01.342Z,5.70
2019-05-29T02:21:30.020Z,7.25
2019-05-29T02:23:58.698Z,5.10
2019-05-29T02:26:27.253Z,6.50
2019-05-29T02:28:55.757Z,5.40
2019-05-29T02:31:26.596Z,6.75
2019-05-29T02:33:54.739Z,5.20
2019-05-29T02:36:24.546Z,11.08
2019-05-29T02:38:53.760Z,10.05
2019-05-29T02:41:24.219Z,8.78
2019-05-29T02:43:52.610Z,8.53
2019-05-29T02:46:21.753Z,7.55
2019-05-29T02:48:50.787Z,12.55
2019-05-29T02:51:19.808Z,10.20
2019-05-29T02:53:48.548Z,14.23
2019-05-29T02:56:17.119Z,5.83
2019-05-29T02:58:46.148Z,8.55
2019-05-29T03:01:14.825Z,11.50
2019-05-29T03:03:43.382Z,10.03
2019-05-29T03:06:13.020Z,10.53
2019-05-29T03:08:41.891Z,6.80
2019-05-29T03:11:10.541Z,10.78
2019-05-29T03:13:39.209Z,8.28
2019-05-29T03:16:12.097Z,7.65
2019-05-29T03:18:38.226Z,13.58
2019-05-29T03:21:06.868Z,9.48
2019-05-29T03:23:36.380Z,8.13
2019-05-29T03:26:05.385Z,6.65
2019-05-29T03:28:34.910Z,10.95
2019-05-29T03:31:04.169Z,14.05
2019-05-29T03:33:41.042Z,8.25
2019-05-29T03:36:03.133Z,12.15
2019-05-29T03:38:32.672Z,10.23
2019-05-29T03:41:01.811Z,20.48
2019-05-29T03:43:31.175Z,11.25
2019-05-29T03:46:00.836Z,11.20
2019-05-29T03:48:29.861Z,14.00
2019-05-29T03:50:58.634Z,21.75
2019-05-29T03:53:27.243Z,14.53
2019-05-29T03:55:56.240Z,12.10
2019-05-29T03:58:26.265Z,8.80
2019-05-29T04:00:54.998Z,12.90
2019-05-29T04:03:23.646Z,8.58
2019-05-29T04:05:52.230Z,13.85
2019-05-29T04:08:20.833Z,6.33
2019-05-29T04:10:50.055Z,20.25
2019-05-29T04:13:18.687Z,19.10
2019-05-29T04:15:47.390Z,18.52
2019-05-29T04:18:19.731Z,15.38
2019-05-29T04:20:51.259Z,12.95
2019-05-29T04:23:20.532Z,21.42
2019-05-29T04:25:51.174Z,16.17
2019-05-29T04:28:20.812Z,18.15
2019-05-29T04:30:49.339Z,15.08
2019-05-29T04:33:17.855Z,16.75
2019-05-29T04:35:46.367Z,11.68
2019-05-29T04:38:15.054Z,10.28
2019-05-29T04:40:43.691Z,10.50
2019-05-29T04:43:12.315Z,10.50
2019-05-29T04:45:40.898Z,11.85
2019-05-29T04:48:09.545Z,7.75
2019-05-29T04:50:40.324Z,13.43
2019-05-29T04:53:08.498Z,12.63
2019-05-29T04:55:37.100Z,14.90
2019-05-29T04:58:05.734Z,7.28
2019-05-29T05:00:35.176Z,8.00
2019-05-29T05:03:03.763Z,9.40
2019-05-29T05:05:33.264Z,7.90
2019-05-29T05:08:02.016Z,6.58
2019-05-29T05:10:40.594Z,7.15
2019-05-29T05:13:08.865Z,6.55
2019-05-29T05:15:38.136Z,4.95
2019-05-29T05:18:07.503Z,4.78
2019-05-29T05:20:36.441Z,3.37
2019-05-29T05:23:05.407Z,4.75
2019-05-29T05:25:34.272Z,6.55
2019-05-29T05:28:02.934Z,4.78
2019-05-29T05:30:32.358Z,1.47
2019-05-29T05:33:01.106Z,1.20
2019-05-29T05:35:30.742Z,6.65
2019-05-29T05:37:59.308Z,2.17
2019-05-29T05:40:27.950Z,3.92
2019-05-29T05:42:56.641Z,1.95
2019-05-29T05:45:25.276Z,1.22
2019-05-29T05:47:57.779Z,4.97
2019-05-29T05:50:24.533Z,2.40
2019-05-29T05:52:53.287Z,5.78
2019-05-29T05:55:21.895Z,3.83
2019-05-29T05:57:50.503Z,5.28
2019-05-29T06:00:31.698Z,6.12
2019-05-29T06:03:00.626Z,8.00
2019-05-29T06:05:29.260Z,5.55
2019-05-29T06:07:57.817Z,5.83
2019-05-29T06:10:26.413Z,8.98
2019-05-29T06:12:55.044Z,8.75
2019-05-29T06:15:23.610Z,5.72
2019-05-29T06:18:16.904Z,6.37
2019-05-29T06:20:22.679Z,5.97
2019-05-29T06:22:51.252Z,5.33
2019-05-29T06:25:20.088Z,6.33
2019-05-29T06:27:48.716Z,4.67
2019-05-29T06:30:19.266Z,6.20
2019-05-29T06:32:47.932Z,7.28
2019-05-29T06:35:17.146Z,3.12
2019-05-29T06:37:46.287Z,5.33
2019-05-29T06:40:18.016Z,5.72
2019-05-29T06:42:46.531Z,5.83
2019-05-29T06:45:18.161Z,4.12
2019-05-29T06:47:46.862Z,7.58
2019-05-29T06:50:15.496Z,7.42
2019-05-29T06:52:43.991Z,4.20
2019-05-29T06:55:12.726Z,2.85
2019-05-29T06:57:42.612Z,7.95
2019-05-29T07:00:11.723Z,4.58
2019-05-29T07:02:40.884Z,6.15
2019-05-29T07:05:09.592Z,5.05
2019-05-29T07:07:38.374Z,4.62
2019-05-29T07:10:07.506Z,4.58
2019-05-29T07:12:36.390Z,4.62
2019-05-29T07:15:07.047Z,8.18
2019-05-29T07:17:36.315Z,3.33
2019-05-29T07:20:06.950Z,9.63
2019-05-29T07:22:36.892Z,5.60
2019-05-29T07:25:06.896Z,5.85
2019-05-29T07:27:36.715Z,5.15
2019-05-29T07:30:06.797Z,2.95
2019-05-29T07:32:35.474Z,4.60
2019-05-29T07:35:04.873Z,5.45
2019-05-29T07:37:33.414Z,3.70
2019-05-29T07:40:01.927Z,5.05
2019-05-29T07:42:30.567Z,6.72
2019-05-29T07:44:59.245Z,7.95
2019-05-29T07:47:27.747Z,4.15
2019-05-29T07:49:56.237Z,8.00
2019-05-29T07:52:24.930Z,6.10
2019-05-29T07:54:53.584Z,6.70
2019-05-29T07:57:22.219Z,4.47
2019-05-29T07:59:50.906Z,5.45
2019-05-29T08:02:19.551Z,4.35
2019-05-29T08:04:49.767Z,6.37
2019-05-29T08:07:18.635Z,6.72
2019-05-29T08:09:47.866Z,4.35
2019-05-29T08:12:16.608Z,4.67
2019-05-29T08:14:45.823Z,3.62
2019-05-29T08:17:14.520Z,3.77
2019-05-29T08:20:00.618Z,7.37
2019-05-29T08:22:13.491Z,4.50
2019-05-29T08:24:42.662Z,7.15
2019-05-29T08:27:11.278Z,6.70
2019-05-29T08:29:40.596Z,5.53
2019-05-29T08:32:09.252Z,8.43
2019-05-29T08:34:37.820Z,6.42
2019-05-29T08:37:07.583Z,6.35
2019-05-29T08:39:37.133Z,4.55
2019-05-29T08:42:22.681Z,3.05
2019-05-29T08:44:36.100Z,4.33
2019-05-29T08:47:10.577Z,3.87
2019-05-29T08:49:35.103Z,7.37
2019-05-29T08:52:11.785Z,5.78
2019-05-29T08:54:34.065Z,3.47
2019-05-29T08:57:02.584Z,3.12
2019-05-29T08:59:31.193Z,6.05
2019-05-29T09:01:59.856Z,5.95
2019-05-29T09:04:28.856Z,2.12
2019-05-29T09:06:57.400Z,0.95
2019-05-29T09:09:26.082Z,3.25
2019-05-29T09:11:54.714Z,2.90
2019-05-29T09:14:23.444Z,1.35
2019-05-29T09:16:52.095Z,2.83
2019-05-29T09:19:21.152Z,1.47
2019-05-29T09:21:51.181Z,2.77
2019-05-29T09:24:20.836Z,5.75
2019-05-29T09:26:49.463Z,4.55
2019-05-29T09:29:20.588Z,3.60
2019-05-29T09:31:48.476Z,9.70
2019-05-29T09:34:18.624Z,2.27
2019-05-29T09:36:47.590Z,0.95
2019-05-29T09:39:16.739Z,4.95
2019-05-29T09:41:46.387Z,2.33
2019-05-29T09:44:31.111Z,2.02
2019-05-29T09:46:45.275Z,4.50
2019-05-29T09:49:13.938Z,5.50
2019-05-29T09:51:42.512Z,7.30
2019-05-29T09:54:11.057Z,2.30
2019-05-29T09:56:39.762Z,2.15
2019-05-29T09:59:08.447Z,2.42
2019-05-29T10:01:37.094Z,1.27
2019-05-29T10:04:06.214Z,0.80
2019-05-29T10:06:35.120Z,1.30
2019-05-29T10:09:05.450Z,2.22
2019-05-29T10:11:34.074Z,1.67
2019-05-29T10:14:03.492Z,3.83
2019-05-29T10:16:33.148Z,3.62
2019-05-29T10:19:03.085Z,2.37
2019-05-29T10:21:40.082Z,1.20
2019-05-29T10:24:04.190Z,3.25
2019-05-29T10:26:33.009Z,2.92
2019-05-29T10:29:08.307Z,3.60
2019-05-29T10:31:31.799Z,9.45
2019-05-29T10:34:00.456Z,6.60
2019-05-29T10:36:29.109Z,3.17
2019-05-29T10:38:57.727Z,2.15
2019-05-29T10:41:26.338Z,5.08
2019-05-29T10:43:54.986Z,8.33
2019-05-29T10:46:23.624Z,3.52
2019-05-29T10:48:54.314Z,2.15
2019-05-29T10:51:22.589Z,2.55
2019-05-29T10:53:53.075Z,4.95
2019-05-29T10:56:21.832Z,2.47
2019-05-29T10:58:56.411Z,2.12
2019-05-29T11:01:20.783Z,2.05
2019-05-29T11:03:49.427Z,3.75
2019-05-29T11:06:17.966Z,6.58
2019-05-29T11:08:47.887Z,4.97
2019-05-29T11:11:16.677Z,7.97
2019-05-29T11:13:46.634Z,4.65
2019-05-29T11:16:15.342Z,5.65
2019-05-29T11:18:44.023Z,2.22
2019-05-29T11:21:12.656Z,4.75
2019-05-29T11:23:41.292Z,0.80
2019-05-29T11:26:09.820Z,1.17
2019-05-29T11:28:38.453Z,4.60
2019-05-29T11:31:07.090Z,5.62
2019-05-29T11:33:35.688Z,2.12
2019-05-29T11:36:12.235Z,1.17
2019-05-29T11:38:34.814Z,6.65
2019-05-29T11:41:23.646Z,2.90
2019-05-29T11:43:33.907Z,4.53
2019-05-29T11:46:02.547Z,2.52
2019-05-29T11:48:31.224Z,9.28
2019-05-29T11:50:59.915Z,4.75
2019-05-29T11:53:28.475Z,9.00
2019-05-29T11:55:57.753Z,3.15
2019-05-29T11:58:31.102Z,3.92
2019-05-29T12:00:57.195Z,4.17
2019-05-29T12:03:25.809Z,1.15
2019-05-29T12:05:55.354Z,6.12
2019-05-29T12:08:24.099Z,2.40
2019-05-29T12:10:53.185Z,0.60
2019-05-29T12:13:21.855Z,3.33
2019-05-29T12:15:51.487Z,2.45
2019-05-29T12:18:24.323Z,3.83
2019-05-29T12:20:51.967Z,3.15
2019-05-29T12:23:26.405Z,5.45
2019-05-29T12:26:11.658Z,0.85
2019-05-29T12:28:21.336Z,3.15
2019-05-29T12:30:49.974Z,0.95
2019-05-29T12:33:18.667Z,3.08
2019-05-29T12:35:50.167Z,3.35
2019-05-29T12:38:17.640Z,3.60
2019-05-29T12:40:46.285Z,1.62
2019-05-29T12:43:26.690Z,4.67
2019-05-29T12:45:45.267Z,3.70
2019-05-29T12:48:15.610Z,5.47
2019-05-29T12:50:44.205Z,1.95
2019-05-29T12:53:28.953Z,2.25
2019-05-29T12:55:43.316Z,7.80
2019-05-29T12:58:11.894Z,4.97
2019-05-29T13:00:40.579Z,5.45
2019-05-29T13:03:09.223Z,4.60
2019-05-29T13:05:37.789Z,3.22
2019-05-29T13:08:06.510Z,8.83
2019-05-29T13:10:35.145Z,3.98
2019-05-29T13:13:08.516Z,2.12
2019-05-29T13:15:34.234Z,5.58
2019-05-29T13:18:09.130Z,6.40
2019-05-29T13:20:33.230Z,2.42
2019-05-29T13:23:03.594Z,3.52
2019-05-29T13:25:32.281Z,4.22
2019-05-29T13:28:01.576Z,8.70
2019-05-29T13:30:31.671Z,3.75
2019-05-29T13:33:03.609Z,3.33
2019-05-29T13:35:30.715Z,4.20
2019-05-29T13:37:59.400Z,4.30
2019-05-29T13:40:28.056Z,5.40
2019-05-29T13:42:56.612Z,0.80
2019-05-29T13:45:25.269Z,5.20
2019-05-29T13:47:53.833Z,6.58
2019-05-29T13:50:22.480Z,5.30
2019-05-29T13:52:51.085Z,2.65
2019-05-29T13:55:19.662Z,2.87
2019-05-29T13:57:48.225Z,2.67
2019-05-29T14:00:33.178Z,1.55
2019-05-29T14:02:49.140Z,2.77
2019-05-29T14:05:18.275Z,1.57
2019-05-29T14:07:46.873Z,7.08
2019-05-29T14:10:16.009Z,2.22
2019-05-29T14:12:44.577Z,0.98
2019-05-29T14:15:13.759Z,2.35
2019-05-29T14:17:42.426Z,5.65
2019-05-29T14:20:11.329Z,8.13
2019-05-29T14:22:39.990Z,3.77
2019-05-29T14:25:09.591Z,3.92
2019-05-29T14:27:38.185Z,2.08
2019-05-29T14:30:10.409Z,2.72
2019-05-29T14:32:39.470Z,2.25
2019-05-29T14:35:09.495Z,2.05
2019-05-29T14:37:38.916Z,4.25
2019-05-29T14:40:09.832Z,3.75
2019-05-29T14:42:38.626Z,23.65
2019-05-29T14:45:08.205Z,6.50
2019-05-29T14:47:36.855Z,4.72
2019-05-29T14:50:08.783Z,3.52
2019-05-29T14:52:37.668Z,6.62
2019-05-29T14:55:07.032Z,2.92
2019-05-29T14:57:35.629Z,2.08
2019-05-29T15:00:20.972Z,7.20
2019-05-29T15:02:39.917Z,2.55
2019-05-29T15:05:09.731Z,4.05
2019-05-29T15:07:38.566Z,3.75
2019-05-29T15:10:19.679Z,8.53
2019-05-29T15:12:39.251Z,2.20
2019-05-29T15:15:11.394Z,4.50
2019-05-29T15:17:39.858Z,2.85
2019-05-29T15:20:09.872Z,4.42
2019-05-29T15:22:39.055Z,0.42
2019-05-29T15:25:18.408Z,1.65
2019-05-29T15:27:38.584Z,2.72
2019-05-29T15:30:08.750Z,1.45
2019-05-29T15:32:37.573Z,3.20
2019-05-29T15:35:11.029Z,0.93
2019-05-29T15:37:37.883Z,1.92
2019-05-29T15:40:08.767Z,0.62
2019-05-29T15:42:37.644Z,0.33
2019-05-29T15:45:11.812Z,1.22
2019-05-29T15:47:40.497Z,1.42
2019-05-29T15:50:11.405Z,3.30
2019-05-29T15:52:40.276Z,0.40
2019-05-29T15:55:27.406Z,1.30
2019-05-29T15:57:40.672Z,0.30
2019-05-29T16:00:11.577Z,0.50
2019-05-29T16:02:40.233Z,2.58
2019-05-29T16:05:10.925Z,2.85
2019-05-29T16:07:40.202Z,2.30
2019-05-29T16:10:13.092Z,1.15
2019-05-29T16:12:39.836Z,3.20
2019-05-29T16:15:09.200Z,0.30
2019-05-29T16:17:37.812Z,1.17
2019-05-29T16:20:10.074Z,1.77
2019-05-29T16:22:38.978Z,0.40
2019-05-29T16:25:08.605Z,0.35
2019-05-29T16:27:37.263Z,1.67
2019-05-29T16:30:11.378Z,1.57
2019-05-29T16:32:40.064Z,2.58
2019-05-29T16:35:09.491Z,1.92
2019-05-29T16:37:38.412Z,0.88
2019-05-29T16:40:18.113Z,1.62
2019-05-29T16:42:46.817Z,0.78
2019-05-29T16:45:16.432Z,1.05
2019-05-29T16:47:45.081Z,0.98
2019-05-29T16:50:14.937Z,1.05
2019-05-29T16:52:43.824Z,1.65
2019-05-29T16:55:15.336Z,1.02
2019-05-29T16:57:44.074Z,2.70
2019-05-29T17:00:15.643Z,3.47
2019-05-29T17:02:44.438Z,2.20
2019-05-29T17:05:13.688Z,1.30
2019-05-29T17:07:42.346Z,4.20
2019-05-29T17:10:14.328Z,0.30
2019-05-29T17:12:42.983Z,3.87
2019-05-29T17:15:14.798Z,3.02
2019-05-29T17:17:43.549Z,2.15
2019-05-29T17:20:15.037Z,3.20
2019-05-29T17:22:43.662Z,0.98
2019-05-29T17:25:12.273Z,5.12
2019-05-29T17:27:40.905Z,4.95
2019-05-29T17:30:09.838Z,3.58
2019-05-29T17:32:38.516Z,5.85
2019-05-29T17:35:09.158Z,5.12
2019-05-29T17:37:38.043Z,6.90
2019-05-29T17:40:07.373Z,6.22
2019-05-29T17:42:35.976Z,4.12
2019-05-29T17:45:06.788Z,1.32
2019-05-29T17:47:35.494Z,3.00
2019-05-29T17:50:08.376Z,4.95
2019-05-29T17:52:36.897Z,2.30
2019-05-29T17:55:18.500Z,3.02
2019-05-29T17:57:45.045Z,1.98
2019-05-29T18:00:20.562Z,3.77
2019-05-29T18:02:52.314Z,2.45
2019-05-29T18:05:20.493Z,7.05
2019-05-29T18:07:49.193Z,2.75
2019-05-29T18:10:20.333Z,3.95
2019-05-29T18:12:48.423Z,5.22
2019-05-29T18:15:19.520Z,0.47
2019-05-29T18:17:48.282Z,2.55
2019-05-29T18:20:17.882Z,1.45
2019-05-29T18:22:46.650Z,1.75
2019-05-29T18:25:15.281Z,3.17
2019-05-29T18:27:43.872Z,0.40
2019-05-29T18:30:14.370Z,1.47
2019-05-29T18:32:42.928Z,1.57
2019-05-29T18:35:11.701Z,0.40
2019-05-29T18:37:40.268Z,4.22
2019-05-29T18:40:12.633Z,0.40
2019-05-29T18:42:41.385Z,3.17
2019-05-29T18:45:20.204Z,2.05
2019-05-29T18:47:42.167Z,0.50
2019-05-29T18:50:11.849Z,3.47
2019-05-29T18:52:40.496Z,4.33
2019-05-29T18:55:09.915Z,0.50
2019-05-29T18:57:38.531Z,3.33
2019-05-29T19:00:08.054Z,1.55
2019-05-29T19:02:36.696Z,3.90
2019-05-29T19:05:06.346Z,3.77
2019-05-29T19:07:35.119Z,2.60
2019-05-29T19:10:06.717Z,3.90
2019-05-29T19:12:36.073Z,1.15
2019-05-29T19:15:06.938Z,2.15
2019-05-29T19:17:35.572Z,1.25
2019-05-29T19:20:04.952Z,1.90
2019-05-29T19:22:33.524Z,2.90
2019-05-29T19:25:02.199Z,1.57
2019-05-29T19:27:39.098Z,3.87
2019-05-29T19:30:01.206Z,3.20
2019-05-29T19:32:29.830Z,3.65
2019-05-29T19:34:58.493Z,0.98
2019-05-29T19:37:27.932Z,0.50
2019-05-29T19:39:56.571Z,0.50
2019-05-29T19:42:26.135Z,3.70
2019-05-29T19:44:54.667Z,1.37
2019-05-29T19:47:24.522Z,2.15
2019-05-29T19:49:53.395Z,4.25
2019-05-29T19:52:21.958Z,0.45
2019-05-29T19:54:50.546Z,2.65
2019-05-29T19:57:19.210Z,0.40
2019-05-29T19:59:48.011Z,4.05
2019-05-29T20:02:17.678Z,2.60
2019-05-29T20:04:46.281Z,4.15
2019-05-29T20:07:14.926Z,1.70
2019-05-29T20:09:43.620Z,1.02
2019-05-29T20:12:12.200Z,1.50
2019-05-29T20:14:40.837Z,1.80
2019-05-29T20:17:09.469Z,2.50
2019-05-29T20:19:40.857Z,1.15
2019-05-29T20:22:08.568Z,1.20
2019-05-29T20:24:37.172Z,0.98
2019-05-29T20:27:05.859Z,0.98
2019-05-29T20:29:34.564Z,3.35
2019-05-29T20:32:03.211Z,0.35
2019-05-29T20:34:32.777Z,0.30
2019-05-29T20:37:01.365Z,0.72
2019-05-29T20:39:30.230Z,1.27
2019-05-29T20:41:58.884Z,0.33
2019-05-29T20:44:27.511Z,0.45
2019-05-29T20:46:56.237Z,1.90
2019-05-29T20:49:24.831Z,1.80
2019-05-29T20:51:53.399Z,0.60
2019-05-29T20:54:22.023Z,2.35
2019-05-29T20:56:50.616Z,1.90
2019-05-29T20:59:19.173Z,0.55
2019-05-29T21:01:47.900Z,0.53
2019-05-29T21:04:16.934Z,1.60
2019-05-29T21:06:45.645Z,1.22
2019-05-29T21:09:14.217Z,2.15
2019-05-29T21:11:43.646Z,3.08
2019-05-29T21:14:12.298Z,3.30
2019-05-29T21:16:41.869Z,1.27
2019-05-29T21:19:10.431Z,5.20
2019-05-29T21:21:38.997Z,3.75
2019-05-29T21:24:07.733Z,4.28
2019-05-29T21:26:36.946Z,1.70
2019-05-29T21:29:05.625Z,4.92
2019-05-29T21:31:35.350Z,0.98
2019-05-29T21:34:04.034Z,2.45
2019-05-29T21:36:32.599Z,0.50
2019-05-29T21:39:01.291Z,3.05
2019-05-29T21:41:29.853Z,1.65
2019-05-29T21:43:58.834Z,1.00
2019-05-29T21:46:27.439Z,0.62
2019-05-29T21:48:56.072Z,1.20
2019-05-29T21:51:24.706Z,1.10
2019-05-29T21:53:53.240Z,1.35
2019-05-29T21:56:21.882Z,1.05
2019-05-29T21:59:03.059Z,0.40
2019-05-29T22:01:21.285Z,0.53
2019-05-29T22:03:49.918Z,1.30
2019-05-29T22:06:18.549Z,0.35
2019-05-29T22:08:47.216Z,1.25
2019-05-29T22:11:15.947Z,3.50
2019-05-29T22:13:44.694Z,1.25
2019-05-29T22:16:13.354Z,0.95
2019-05-29T22:18:41.992Z,1.57
2019-05-29T22:21:10.543Z,1.10
2019-05-29T22:23:39.235Z,0.60
2019-05-29T22:26:07.809Z,0.60
2019-05-29T22:28:36.363Z,0.30
2019-05-29T22:31:05.125Z,0.45
2019-05-29T22:33:33.757Z,1.60
2019-05-29T22:36:02.383Z,0.57
2019-05-29T22:38:30.977Z,0.72
2019-05-29T22:40:59.722Z,2.45
2019-05-29T22:43:28.351Z,0.55
2019-05-29T22:45:57.642Z,0.95
2019-05-29T22:48:26.298Z,1.62
2019-05-29T22:50:55.734Z,1.05
2019-05-29T22:53:24.333Z,0.60
2019-05-29T22:55:53.741Z,0.88
2019-05-29T22:58:22.400Z,0.88
2019-05-29T23:00:51.803Z,0.78
2019-05-29T23:03:20.315Z,0.30
2019-05-29T23:05:48.939Z,0.30
2019-05-29T23:08:17.604Z,0.30
2019-05-29T23:10:46.169Z,0.50
2019-05-29T23:13:14.758Z,2.25
2019-05-29T23:15:43.421Z,3.70
2019-05-29T23:18:11.985Z,0.68
2019-05-29T23:20:40.547Z,0.40
2019-05-29T23:23:09.103Z,1.50
2019-05-29T23:25:37.728Z,1.95
2019-05-29T23:28:06.294Z,1.55
2019-05-29T23:30:34.892Z,2.30
2019-05-29T23:33:03.547Z,0.82
2019-05-29T23:35:32.160Z,0.47
2019-05-29T23:38:01.309Z,0.75
2019-05-29T23:40:29.898Z,2.25
2019-05-29T23:42:59.445Z,1.32
2019-05-29T23:45:28.183Z,1.10
2019-05-29T23:47:57.636Z,0.40
2019-05-29T23:50:26.242Z,1.20
2019-05-29T23:52:55.603Z,1.75
2019-05-29T23:55:24.159Z,2.77
2019-05-29T23:57:53.687Z,0.75
